createdAt,value
2023-03-01T00:01:16.688Z,9.15
2023-03-01T00:04:21.789Z,8.93
2023-03-01T00:07:28.671Z,8.68
2023-03-01T00:10:35.082Z,11.65
2023-03-01T00:13:47.125Z,10.68
2023-03-01T00:16:55.250Z,10.35
2023-03-01T00:20:03.161Z,9.07
2023-03-01T00:23:10.492Z,9.55
2023-03-01T00:26:17.789Z,9.65
2023-03-01T00:29:23.143Z,11.85
2023-03-01T00:32:34.492Z,11.55
2023-03-01T00:38:49.592Z,11.85
2023-03-01T00:41:55.194Z,9.23
2023-03-01T00:45:01.001Z,9.10
2023-03-01T00:48:10.945Z,9.23
2023-03-01T00:51:17.775Z,11.18
2023-03-01T00:54:24.225Z,13.25
2023-03-01T00:57:31.682Z,12.07
2023-03-01T01:00:37.239Z,9.93
2023-03-01T01:03:45.464Z,9.13
2023-03-01T01:06:51.561Z,7.50
2023-03-01T01:10:00.694Z,9.02
2023-03-01T01:13:13.242Z,8.25
2023-03-01T01:19:30.820Z,9.23
2023-03-01T01:22:36.598Z,7.60
2023-03-01T01:25:42.058Z,10.57
2023-03-01T01:28:47.998Z,8.65
2023-03-01T01:31:55.689Z,9.75
2023-03-01T01:35:04.108Z,10.35
2023-03-01T01:38:09.218Z,11.43
2023-03-01T01:41:17.784Z,10.30
2023-03-01T01:44:28.433Z,10.52
2023-03-01T01:47:34.273Z,12.60
2023-03-01T01:50:46.247Z,11.70
2023-03-01T01:53:53.515Z,10.18
2023-03-01T01:57:02.408Z,10.73
2023-03-01T02:00:11.765Z,8.93
2023-03-01T02:03:19.296Z,11.82
2023-03-01T02:06:31.669Z,12.30
2023-03-01T02:09:37.786Z,9.53
2023-03-01T02:12:43.481Z,11.30
2023-03-01T02:15:50.714Z,11.90
2023-03-01T02:18:59.622Z,12.38
2023-03-01T02:22:15.989Z,11.60
2023-03-01T02:25:45.124Z,12.77
2023-03-01T02:28:55.312Z,12.75
2023-03-01T02:32:02.286Z,11.85
2023-03-01T02:35:08.201Z,13.07
2023-03-01T02:38:21.186Z,14.32
2023-03-01T02:41:27.808Z,12.82
2023-03-01T02:44:38.035Z,12.50
2023-03-01T02:47:47.905Z,9.77
2023-03-01T02:51:01.523Z,13.35
2023-03-01T02:54:12.164Z,12.82
2023-03-01T02:57:18.585Z,12.73
2023-03-01T03:00:27.452Z,13.80
2023-03-01T03:03:36.076Z,13.48
2023-03-01T03:06:43.555Z,13.93
2023-03-01T03:09:50.856Z,14.13
2023-03-01T03:12:59.704Z,15.10
2023-03-01T03:16:06.258Z,14.10
2023-03-01T03:19:16.448Z,15.90
2023-03-01T03:25:29.896Z,15.43
2023-03-01T03:28:40.996Z,15.02
2023-03-01T03:31:46.330Z,16.45
2023-03-01T03:34:56.904Z,13.05
2023-03-01T03:38:07.369Z,14.07
2023-03-01T03:41:16.233Z,15.60
2023-03-01T03:44:21.115Z,13.43
2023-03-01T03:47:27.601Z,13.02
2023-03-01T03:50:41.373Z,14.90
2023-03-01T03:53:49.471Z,16.35
2023-03-01T03:56:59.059Z,11.82
2023-03-01T04:00:05.929Z,14.07
2023-03-01T04:03:13.493Z,14.40
2023-03-01T04:06:21.776Z,16.30
2023-03-01T04:09:26.708Z,16.35
2023-03-01T04:12:35.284Z,14.93
2023-03-01T04:15:40.222Z,13.85
2023-03-01T04:18:45.968Z,19.05
2023-03-01T04:21:53.461Z,19.23
2023-03-01T04:24:59.365Z,13.02
2023-03-01T04:28:04.368Z,17.15
2023-03-01T04:31:16.810Z,18.52
2023-03-01T04:34:22.498Z,16.40
2023-03-01T04:37:30.903Z,17.33
2023-03-01T04:40:39.907Z,14.43
2023-03-01T04:43:45.226Z,15.55
2023-03-01T04:46:52.268Z,18.67
2023-03-01T04:49:58.869Z,20.10
2023-03-01T04:53:06.885Z,19.13
2023-03-01T04:56:12.819Z,16.02
2023-03-01T04:59:23.644Z,20.27
2023-03-01T05:02:29.332Z,16.52
2023-03-01T05:05:34.890Z,16.02
2023-03-01T05:08:45.028Z,23.00
2023-03-01T05:11:52.777Z,19.67
2023-03-01T05:14:59.567Z,17.15
2023-03-01T05:18:04.707Z,20.38
2023-03-01T05:21:11.303Z,15.43
2023-03-01T05:24:19.152Z,15.32
2023-03-01T05:27:27.886Z,19.58
2023-03-01T05:30:33.860Z,11.70
2023-03-01T05:33:39.808Z,14.15
2023-03-01T05:36:44.739Z,17.20
2023-03-01T05:39:53.501Z,15.80
2023-03-01T05:43:01.309Z,19.33
2023-03-01T05:46:06.736Z,17.92
2023-03-01T05:49:12.073Z,12.75
2023-03-01T05:52:18.937Z,16.35
2023-03-01T05:55:29.239Z,19.02
2023-03-01T05:58:39.147Z,16.00
2023-03-01T06:01:44.531Z,17.45
2023-03-01T06:04:54.953Z,20.98
2023-03-01T06:08:04.576Z,14.82
2023-03-01T06:11:16.567Z,17.67
2023-03-01T06:14:23.897Z,19.02
2023-03-01T06:17:29.279Z,19.88
2023-03-01T06:20:36.177Z,20.10
2023-03-01T06:23:41.633Z,16.42
2023-03-01T06:26:49.578Z,15.73
2023-03-01T06:29:57.697Z,21.42
2023-03-01T06:33:04.131Z,20.90
2023-03-01T06:36:11.979Z,18.58
2023-03-01T06:39:19.109Z,18.35
2023-03-01T06:42:29.621Z,16.88
2023-03-01T06:45:36.811Z,21.83
2023-03-01T06:48:42.860Z,19.25
2023-03-01T06:51:48.347Z,24.25
2023-03-01T06:54:54.108Z,34.33
2023-03-01T06:58:02.531Z,29.92
2023-03-01T07:01:10.380Z,23.20
2023-03-01T07:04:21.040Z,26.83
2023-03-01T07:07:27.018Z,22.70
2023-03-01T07:10:32.013Z,19.00
2023-03-01T07:13:41.981Z,16.83
2023-03-01T07:16:47.101Z,20.20
2023-03-01T07:19:55.961Z,19.52
2023-03-01T07:23:00.994Z,15.50
2023-03-01T07:26:06.922Z,30.40
2023-03-01T07:29:14.949Z,16.55
2023-03-01T07:32:26.673Z,19.75
2023-03-01T07:35:32.272Z,21.27
2023-03-01T07:38:49.418Z,19.08
2023-03-01T07:41:54.649Z,22.00
2023-03-01T07:45:04.004Z,18.17
2023-03-01T07:48:09.912Z,20.90
2023-03-01T07:51:15.579Z,19.85
2023-03-01T07:54:23.269Z,18.25
2023-03-01T07:57:29.179Z,19.15
2023-03-01T08:00:37.142Z,18.17
2023-03-01T08:03:45.862Z,16.77
2023-03-01T08:06:52.498Z,17.10
2023-03-01T08:10:03.879Z,16.25
2023-03-01T08:13:10.035Z,16.38
2023-03-01T08:16:20.036Z,20.00
2023-03-01T08:19:25.231Z,20.35
2023-03-01T08:22:32.474Z,17.88
2023-03-01T08:25:38.882Z,18.45
2023-03-01T08:28:47.619Z,15.05
2023-03-01T08:31:56.256Z,18.13
2023-03-01T08:52:25.831Z,17.05
2023-03-01T08:55:31.719Z,16.50
2023-03-01T08:58:41.169Z,13.13
2023-03-01T09:01:49.766Z,17.33
2023-03-01T09:04:55.059Z,13.57
2023-03-01T09:08:05.443Z,16.67
2023-03-01T09:11:11.956Z,13.70
2023-03-01T09:14:17.565Z,16.02
2023-03-01T09:17:24.908Z,10.85
2023-03-01T09:20:30.345Z,12.60
2023-03-01T09:23:40.322Z,13.13
2023-03-01T09:26:50.768Z,11.40
2023-03-01T09:29:57.566Z,15.43
2023-03-01T09:33:03.583Z,14.00
2023-03-01T09:36:12.413Z,15.60
2023-03-01T09:39:22.881Z,11.52
2023-03-01T09:42:32.272Z,14.68
2023-03-01T09:45:39.235Z,11.18
2023-03-01T09:48:47.086Z,13.55
2023-03-01T09:51:58.609Z,11.88
2023-03-01T09:55:12.655Z,11.45
2023-03-01T09:58:32.621Z,14.90
2023-03-01T10:01:40.038Z,15.50
2023-03-01T10:04:50.496Z,14.63
2023-03-01T10:08:02.400Z,14.13
2023-03-01T10:11:22.166Z,16.10
2023-03-01T10:14:33.815Z,13.63
2023-03-01T10:17:41.973Z,14.75
2023-03-01T10:20:50.825Z,11.68
2023-03-01T10:23:58.790Z,12.63
2023-03-01T10:27:10.880Z,15.00
2023-03-01T10:30:21.216Z,17.40
2023-03-01T10:33:27.622Z,18.23
2023-03-01T10:36:36.737Z,15.63
2023-03-01T10:39:58.094Z,15.50
2023-03-01T10:43:08.725Z,16.85
2023-03-01T10:46:29.023Z,17.08
2023-03-01T10:49:37.651Z,14.93
2023-03-01T10:52:45.265Z,13.48
2023-03-01T10:56:01.479Z,15.32
2023-03-01T11:05:35.307Z,17.83
2023-03-01T11:08:57.918Z,12.63
2023-03-01T11:12:05.098Z,15.73
2023-03-01T11:18:40.600Z,15.25
2023-03-01T11:22:00.766Z,15.98
2023-03-01T11:25:10.940Z,16.13
2023-03-01T11:28:19.746Z,13.70
2023-03-01T11:31:25.836Z,16.17
2023-03-01T11:34:36.457Z,14.52
2023-03-01T11:41:04.154Z,20.17
2023-03-01T11:44:15.920Z,15.63
2023-03-01T11:47:40.557Z,15.65
2023-03-01T11:50:52.781Z,15.68
2023-03-01T11:54:06.342Z,16.83
2023-03-01T11:57:18.383Z,21.48
2023-03-01T12:00:32.795Z,13.10
2023-03-01T12:03:50.874Z,16.83
2023-03-01T12:06:59.975Z,18.38
2023-03-01T12:10:22.153Z,17.20
2023-03-01T12:13:39.513Z,16.88
2023-03-01T12:17:16.009Z,17.02
2023-03-01T12:20:26.119Z,18.95
2023-03-01T12:23:34.786Z,15.95
2023-03-01T12:26:50.829Z,17.05
2023-03-01T12:30:08.091Z,17.37
2023-03-01T12:33:26.064Z,15.10
2023-03-01T12:36:41.285Z,15.20
2023-03-01T12:39:52.088Z,23.17
2023-03-01T12:43:06.253Z,22.60
2023-03-01T12:46:29.156Z,21.85
2023-03-01T12:49:42.947Z,19.00
2023-03-01T12:52:52.806Z,18.83
2023-03-01T12:55:58.942Z,19.10
2023-03-01T12:59:07.318Z,20.45
2023-03-01T13:02:18.067Z,23.08
2023-03-01T13:05:46.090Z,19.98
2023-03-01T13:08:59.451Z,28.13
2023-03-01T13:12:19.015Z,21.85
2023-03-01T13:15:32.369Z,22.70
2023-03-01T13:18:38.313Z,20.17
2023-03-01T13:21:49.756Z,22.67
2023-03-01T13:25:07.000Z,20.98
2023-03-01T13:28:46.389Z,20.17
2023-03-01T13:32:06.338Z,26.43
2023-03-01T13:35:27.784Z,19.75
2023-03-01T13:38:53.536Z,25.27
2023-03-01T13:42:01.174Z,25.40
2023-03-01T13:45:15.645Z,26.13
2023-03-01T13:48:23.300Z,19.98
2023-03-01T13:51:32.592Z,18.30
2023-03-01T13:54:42.807Z,23.67
2023-03-01T13:58:03.076Z,25.55
2023-03-01T14:01:10.019Z,23.63
2023-03-01T14:04:27.067Z,27.67
2023-03-01T14:07:33.501Z,23.30
2023-03-01T14:10:47.660Z,27.98
2023-03-01T14:14:16.570Z,24.38
2023-03-01T14:17:42.465Z,20.02
2023-03-01T14:20:53.615Z,24.55
2023-03-01T14:24:00.994Z,23.00
2023-03-01T14:27:09.228Z,34.70
2023-03-01T14:30:19.404Z,22.95
2023-03-01T14:33:27.101Z,29.85
2023-03-01T14:36:35.497Z,22.85
2023-03-01T14:39:43.661Z,25.77
2023-03-01T14:42:52.022Z,32.55
2023-03-01T14:45:57.551Z,27.20
2023-03-01T14:49:08.829Z,25.10
2023-03-01T14:52:22.328Z,30.38
2023-03-01T14:55:30.917Z,32.50
2023-03-01T14:58:38.872Z,24.67
2023-03-01T15:02:06.604Z,27.67
2023-03-01T15:05:20.898Z,30.27
2023-03-01T15:08:34.174Z,28.70
2023-03-01T15:11:45.815Z,75.07
2023-03-01T15:15:03.896Z,29.15
2023-03-01T15:18:18.963Z,36.22
2023-03-01T15:21:29.052Z,31.50
2023-03-01T15:28:24.172Z,41.20
2023-03-01T15:31:33.816Z,38.00
2023-03-01T15:34:43.053Z,39.38
2023-03-01T15:37:50.768Z,39.40
2023-03-01T15:40:57.160Z,31.42
2023-03-01T15:44:18.687Z,32.33
2023-03-01T15:47:36.110Z,39.97
2023-03-01T15:50:49.173Z,34.67
2023-03-01T15:53:57.307Z,37.92
2023-03-01T15:57:07.350Z,32.07
2023-03-01T16:00:16.365Z,32.50
2023-03-01T16:03:24.608Z,42.80
2023-03-01T16:06:30.117Z,27.80
2023-03-01T16:09:38.867Z,35.92
2023-03-01T16:12:48.576Z,35.33
2023-03-01T16:15:56.837Z,44.38
2023-03-01T16:19:07.114Z,47.15
2023-03-01T16:22:26.064Z,50.13
2023-03-01T16:25:32.026Z,169.75
2023-03-01T16:28:44.770Z,109.22
2023-03-01T16:31:50.577Z,185.40
2023-03-01T16:34:59.654Z,110.75
2023-03-01T16:38:06.510Z,95.53
2023-03-01T16:41:18.810Z,65.32
2023-03-01T16:44:30.261Z,102.82
2023-03-01T16:47:46.518Z,70.85
2023-03-01T16:51:04.842Z,45.28
2023-03-01T16:54:12.108Z,39.53
2023-03-01T16:57:33.380Z,54.42
2023-03-01T17:00:43.867Z,73.03
2023-03-01T17:03:50.171Z,67.22
2023-03-01T17:06:58.793Z,33.78
2023-03-01T17:10:06.809Z,62.10
2023-03-01T17:13:13.383Z,47.35
2023-03-01T17:16:24.890Z,49.92
2023-03-01T17:19:44.557Z,47.80
2023-03-01T17:23:08.906Z,39.55
2023-03-01T17:26:16.757Z,30.45
2023-03-01T17:29:22.275Z,29.20
2023-03-01T17:32:28.847Z,33.20
2023-03-01T17:35:38.361Z,24.90
2023-03-01T17:38:47.685Z,21.80
2023-03-01T17:41:52.978Z,30.90
2023-03-01T17:45:00.826Z,17.25
2023-03-01T17:48:06.554Z,16.42
2023-03-01T17:51:12.848Z,20.60
2023-03-01T17:54:21.782Z,17.27
2023-03-01T17:57:39.504Z,11.30
2023-03-01T18:00:53.126Z,13.57
2023-03-01T18:04:05.996Z,14.38
2023-03-01T18:07:12.170Z,12.77
2023-03-01T18:10:24.741Z,14.43
2023-03-01T18:13:41.180Z,18.67
2023-03-01T18:16:47.810Z,15.30
2023-03-01T18:20:07.541Z,22.17
2023-03-01T18:23:16.558Z,46.08
2023-03-01T18:26:26.020Z,44.25
2023-03-01T18:29:44.442Z,39.88
2023-03-01T18:32:56.581Z,57.20
2023-03-01T18:36:04.590Z,99.82
2023-03-01T18:39:15.231Z,322.85
2023-03-01T18:42:20.753Z,200.73
2023-03-01T18:45:33.994Z,169.68
2023-03-01T18:48:42.413Z,247.48
2023-03-01T18:51:57.758Z,271.48
2023-03-01T18:55:07.996Z,172.13
2023-03-01T18:58:22.542Z,180.43
2023-03-01T19:01:34.752Z,368.70
2023-03-01T19:04:44.622Z,157.95
2023-03-01T19:07:52.852Z,283.48
2023-03-01T19:11:01.199Z,285.48
2023-03-01T19:14:08.749Z,303.48
2023-03-01T19:17:24.946Z,316.92
2023-03-01T19:20:44.040Z,215.75
2023-03-01T19:24:06.674Z,207.63
2023-03-01T19:27:15.319Z,292.88
2023-03-01T19:30:24.942Z,299.02
2023-03-01T19:33:34.269Z,237.43
2023-03-01T19:36:40.117Z,142.20
2023-03-01T19:40:03.905Z,310.10
2023-03-01T19:43:09.069Z,209.55
2023-03-01T19:46:30.837Z,251.98
2023-03-01T19:49:39.933Z,349.20
2023-03-01T19:52:54.961Z,313.63
2023-03-01T19:56:41.974Z,188.77
2023-03-01T19:59:51.958Z,237.70
2023-03-01T20:03:06.762Z,217.00
2023-03-01T20:09:46.138Z,195.98
2023-03-01T20:12:51.603Z,236.73
2023-03-01T20:16:00.273Z,324.85
2023-03-01T20:19:08.772Z,171.18
2023-03-01T20:22:22.965Z,245.65
2023-03-01T20:25:43.268Z,205.10
2023-03-01T20:28:54.398Z,260.10
2023-03-01T20:32:08.369Z,172.38
2023-03-01T20:35:20.778Z,168.15
2023-03-01T20:38:50.608Z,235.13
2023-03-01T20:42:02.967Z,131.05
2023-03-01T20:45:09.776Z,186.75
2023-03-01T20:51:45.775Z,120.32
2023-03-01T20:54:54.475Z,100.10
2023-03-01T20:58:15.463Z,78.85
2023-03-01T21:01:25.756Z,53.95
2023-03-01T21:08:03.064Z,27.40
2023-03-01T21:11:12.051Z,26.02
2023-03-01T21:14:21.703Z,36.08
2023-03-01T21:17:27.723Z,24.55
2023-03-01T21:20:43.019Z,26.33
2023-03-01T21:23:53.269Z,23.40
2023-03-01T21:27:06.724Z,18.05
2023-03-01T21:30:21.207Z,23.10
2023-03-01T21:33:26.907Z,21.40
2023-03-01T21:36:33.923Z,21.95
2023-03-01T21:39:49.146Z,21.02
2023-03-01T21:43:00.469Z,18.05
2023-03-01T21:46:06.675Z,20.63
2023-03-01T21:49:19.448Z,23.00
2023-03-01T21:52:27.988Z,18.17
2023-03-01T21:55:36.897Z,15.73
2023-03-01T21:58:46.017Z,21.48
2023-03-01T22:01:56.722Z,70.25
2023-03-01T22:05:07.332Z,66.40
2023-03-01T22:08:20.991Z,41.50
2023-03-01T22:11:28.682Z,29.08
2023-03-01T22:14:38.558Z,22.48
2023-03-01T22:17:47.124Z,20.17
2023-03-01T22:20:55.307Z,21.08
2023-03-01T22:24:01.629Z,42.03
2023-03-01T22:30:30.360Z,31.55
2023-03-01T22:33:38.096Z,72.63
2023-03-01T22:36:44.840Z,65.90
2023-03-01T22:39:50.644Z,53.60
2023-03-01T22:42:57.990Z,30.77
2023-03-01T22:46:15.593Z,22.45
2023-03-01T22:49:24.800Z,25.45
2023-03-01T22:52:33.200Z,17.27
2023-03-01T22:55:42.600Z,12.40
2023-03-01T22:58:50.963Z,54.20
2023-03-01T23:01:59.599Z,46.17
2023-03-01T23:05:15.804Z,41.40
2023-03-01T23:08:22.099Z,30.20
2023-03-01T23:11:35.724Z,45.55
2023-03-01T23:14:43.926Z,32.03
2023-03-01T23:18:01.065Z,53.08
2023-03-01T23:21:10.755Z,23.02
2023-03-01T23:24:17.264Z,9.30
2023-03-01T23:27:23.884Z,10.82
2023-03-01T23:30:32.933Z,9.52
2023-03-01T23:33:52.824Z,19.75
2023-03-01T23:37:02.055Z,30.45
2023-03-01T23:40:09.361Z,19.88
2023-03-01T23:43:19.057Z,6.80
2023-03-01T23:46:25.968Z,5.07
2023-03-01T23:49:36.040Z,4.18
2023-03-01T23:52:45.444Z,2.72
2023-03-01T23:55:56.093Z,2.42
2023-03-01T23:59:03.046Z,3.47
